DTTN

Jendouba Airport

Jendouba, Tunisia

DTTN 110900Z 23006KT 160V330 9999 SCT020 14/07 Q1011

Observed Flight Rules
Dec-11 @ 09:00 UTC (21 minutes ago) Visual Flight Rules
Wind Visibility Clouds
230° at 6 knots 10,000+ meters
  • Scattered at 2,000' AGL
Temperatures Readings
Current 14°C / 57°F
Dewpoint 7°C / 45°F
Humidity 63%
Altimeter 29.85" Hg
Pressure 1011 hPa
Elevation 144
Observed Flight Rules
Dec-11 @ 09:00 UTC
(21 minutes ago)
VFR
Wind Visibility
230° at 6 knots 10,000+ meters
Clouds
  • Scattered at 2,000' AGL
Temperature Dewpoint
14°C / 57°F 7°C / 45°F
Humidity Altimeter Pressure
63% 29.85" Hg 1011 hPa